Corona Range LRC

2020-08-10 12:50:00

  • imperial
Date Time Air Temperature Relative Humidity Dewpoint Windchill Heat Index Wind Speed Wind Dir. Rain Solar Radiation Soil Temperature
2m 2m 3m 3m 10cm
US/Mountain F % F F F MPH deg in MJ/m^2 F
max avg avg
2020-08-09 12:55:00 86.1 21.0 41.6 86.1 86.1 9.4 9.6 7.4 251.7 271.0 0.00 0.1410367 78.4
2020-08-09 13:00:00 86.4 23.7 45.0 86.4 86.4 3.7 8.1 4.7 341.0 305.4 0.00 0.1961725 78.7
2020-08-09 13:05:00 86.0 19.9 40.1 86.0 86.0 2.4 5.8 3.2 303.3 312.4 0.00 0.1454184 79.0
2020-08-09 13:10:00 86.2 22.0 42.9 86.2 86.2 2.1 3.5 1.9 210.7 244.4 0.00 0.1136856 79.2
2020-08-09 13:15:00 85.7 20.5 40.6 85.7 85.7 4.7 7.8 5.3 187.9 191.2 0.00 0.1027378 79.5
2020-08-09 13:20:00 86.6 20.2 41.0 86.6 86.6 6.3 8.3 6.3 142.6 177.7 0.00 0.2088870 79.8
2020-08-09 13:25:00 87.7 18.9 40.2 87.7 87.7 8.8 9.4 5.9 229.5 219.5 0.00 0.2245364 80.1
2020-08-09 13:30:00 87.0 21.0 42.4 87.0 87.0 2.6 8.3 4.2 220.1 219.8 0.00 0.1007179 80.3
2020-08-09 13:35:00 86.8 22.4 43.9 86.8 86.8 6.2 8.1 4.2 313.0 253.9 0.00 0.1442863 80.5
2020-08-09 13:40:00 86.1 21.3 42.0 86.1 86.1 8.7 13.0 9.6 320.0 291.5 0.00 0.1268854 80.8
2020-08-09 13:45:00 85.0 22.5 42.5 85.0 85.0 5.8 9.7 4.6 317.2 301.9 0.00 0.0431317 81.1
2020-08-09 13:50:00 84.7 22.0 41.6 84.7 84.7 9.7 9.7 5.6 294.6 289.8 0.00 0.0371539 81.2
2020-08-09 13:55:00 83.9 22.5 41.5 83.9 83.9 11.5 11.7 10.0 256.5 279.4 0.00 0.0324804 81.5
2020-08-09 14:00:00 83.4 24.3 43.1 83.4 83.4 6.0 12.2 9.3 285.3 277.6 0.00 0.0282438 81.7
2020-08-09 14:05:00 83.2 25.2 43.9 83.2 83.2 5.1 10.1 7.5 266.4 279.9 0.00 0.0227939 82.0
2020-08-09 14:10:00 83.1 24.7 43.4 83.1 83.1 10.5 12.4 9.3 247.1 264.9 0.00 0.0175001 82.1
2020-08-09 14:15:00 78.6 39.9 52.2 78.6 78.6 17.1 23.2 15.7 224.0 237.7 0.00 0.0129718 82.3
2020-08-09 14:20:00 74.0 43.0 50.1 74.0 74.0 7.2 23.2 14.1 161.4 208.6 0.00 0.0126946 82.4
2020-08-09 14:25:00 71.5 48.2 50.9 71.5 71.5 8.0 8.0 6.8 154.8 154.8 0.01 0.0245931 82.5
2020-08-09 14:30:00 71.7 51.2 52.7 71.7 71.7 7.6 8.3 6.5 178.3 152.7 0.00 0.0627992 82.7
2020-08-09 14:35:00 74.3 54.4 56.8 74.3 74.3 4.4 8.7 5.1 127.5 160.4 0.00 0.0974853 82.7
2020-08-09 14:40:00 75.5 49.9 55.5 75.5 75.5 3.7 7.2 5.3 117.9 148.4 0.00 0.0591309 82.8
2020-08-09 14:45:00 76.4 38.5 49.3 76.4 76.4 4.9 6.2 4.4 133.0 126.4 0.00 0.0405492 82.9
2020-08-09 14:50:00 77.0 49.7 56.8 77.0 77.0 7.2 7.2 3.7 242.9 191.1 0.00 0.0302743 82.9
2020-08-09 14:55:00 76.8 43.3 52.8 76.8 76.8 13.9 15.1 7.9 249.8 239.1 0.00 0.0245983 82.9
2020-08-09 15:00:00 75.5 46.3 53.5 75.5 75.5 7.1 13.9 9.6 228.8 239.7 0.00 0.0170750 82.9
2020-08-09 15:05:00 74.0 46.2 52.0 74.0 74.0 3.8 7.6 4.7 148.0 196.9 0.00 0.0196771 82.8
2020-08-09 15:10:00 73.2 43.0 49.4 73.2 73.2 6.5 8.5 5.8 109.2 119.7 0.01 0.0301437 82.8
2020-08-09 15:15:00 74.6 33.9 44.3 74.6 74.6 7.4 7.4 5.6 55.6 97.4 0.00 0.0260753 82.7
2020-08-09 15:20:00 76.3 34.2 46.0 76.3 76.3 6.7 7.2 6.3 50.4 56.0 0.00 0.0374440 82.7
2020-08-09 15:25:00 76.7 36.9 48.4 76.7 76.7 3.7 6.5 4.1 14.6 41.8 0.00 0.0346382 82.6
2020-08-09 15:30:00 77.3 36.1 48.3 77.3 77.3 3.5 4.2 2.7 277.3 317.7 0.00 0.0222199 82.5
2020-08-09 15:35:00 77.7 42.2 52.9 77.7 77.7 3.3 3.8 2.9 263.1 269.7 0.00 0.0162808 82.5
2020-08-09 15:40:00 75.9 51.8 57.0 75.9 75.9 5.8 8.1 5.0 292.3 252.7 0.00 0.0122728 82.4
2020-08-09 15:45:00 74.5 64.7 61.9 74.5 74.5 2.6 6.9 4.7 297.6 269.1 0.00 0.0825642 82.3
2020-08-09 15:50:00 76.7 40.4 50.8 76.7 76.7 1.2 4.0 2.0 148.6 290.4 0.00 0.1269189 82.2
2020-08-09 15:55:00 77.6 48.6 56.7 77.6 77.6 3.5 3.8 2.8 101.6 122.1 0.00 0.0386295 82.1
2020-08-09 16:00:00 77.5 44.9 54.4 77.5 77.5 4.2 4.9 3.6 106.8 103.6 0.00 0.0293041 82.0
2020-08-09 16:05:00 77.3 47.1 55.6 77.3 77.3 4.7 6.0 4.8 106.8 110.1 0.00 0.0476972 81.9
2020-08-09 16:10:00 77.8 40.0 51.5 77.8 77.8 6.2 9.0 6.6 130.2 107.5 0.00 0.0794713 81.8
2020-08-09 16:15:00 78.2 35.7 48.9 78.2 78.2 6.0 9.0 6.5 105.8 114.1 0.00 0.0883296 81.7
2020-08-09 16:20:00 79.3 39.7 52.6 79.3 79.3 5.5 8.0 6.2 131.1 118.7 0.00 0.0845817 81.7
2020-08-09 16:25:00 80.2 36.9 51.5 80.2 80.2 4.6 8.1 6.0 108.6 121.4 0.00 0.0990137 81.6
2020-08-09 16:30:00 81.4 33.1 49.7 81.4 81.4 4.7 7.8 5.9 132.7 140.4 0.00 0.0787721 81.6
2020-08-09 16:35:00 80.6 31.7 47.8 80.6 80.6 11.0 12.6 7.8 118.2 138.7 0.00 0.0387614 81.5
2020-08-09 16:40:00 79.4 33.4 48.1 79.4 79.4 6.2 11.7 8.8 108.3 110.8 0.00 0.0353145 81.4
2020-08-09 16:45:00 79.7 32.1 47.4 79.7 79.7 7.1 8.5 6.4 129.3 116.2 0.00 0.0455436 81.4
2020-08-09 16:50:00 80.1 32.4 47.9 80.1 80.1 7.1 8.8 6.1 131.8 136.5 0.00 0.0461213 81.4
2020-08-09 16:55:00 80.3 32.3 48.0 80.3 80.3 6.9 9.6 6.8 134.4 133.3 0.00 0.0570224 81.3
2020-08-09 17:00:00 81.7 33.0 49.8 81.7 81.7 7.1 12.1 8.0 133.4 131.6 0.00 0.1230314 81.2
2020-08-09 17:05:00 81.3 29.7 46.7 81.3 81.3 9.2 13.1 9.3 127.7 127.7 0.00 0.0496507 81.2
2020-08-09 17:10:00 81.1 31.8 48.3 81.1 81.1 7.1 12.1 8.8 110.6 117.8 0.00 0.0734927 81.1
2020-08-09 17:15:00 82.0 34.9 51.6 82.0 82.0 4.6 9.0 6.5 86.5 103.2 0.00 0.1012255 81.1
2020-08-09 17:20:00 81.9 30.4 47.7 81.9 81.9 8.8 9.9 6.9 143.7 130.7 0.00 0.0669008 81.0
2020-08-09 17:25:00 82.1 28.2 46.0 82.1 82.1 11.7 11.7 8.4 114.4 115.5 0.00 0.0966815 81.0
2020-08-09 17:30:00 82.4 30.0 47.9 82.4 82.4 8.8 10.8 7.9 132.2 128.3 0.00 0.0867407 80.9
2020-08-09 17:35:00 82.7 28.2 46.5 82.7 82.7 7.8 10.6 8.2 137.1 122.3 0.00 0.0869184 80.9
2020-08-09 17:40:00 83.1 30.3 48.7 83.1 83.1 6.9 9.9 6.4 130.2 135.9 0.00 0.0805821 80.8
2020-08-09 17:45:00 82.4 25.9 44.0 82.4 82.4 7.4 13.5 8.4 142.1 130.6 0.00 0.0646167 80.7
2020-08-09 17:50:00 81.7 30.8 47.9 81.7 81.7 5.1 8.8 7.2 144.2 146.5 0.00 0.0338540 80.7
2020-08-09 17:55:00 81.4 30.4 47.3 81.4 81.4 4.6 9.6 6.3 145.9 137.0 0.00 0.0205563 80.6
2020-08-09 18:00:00 81.9 27.0 44.7 81.9 81.9 6.2 8.7 6.3 147.9 145.5 0.00 0.0597637 80.6
2020-08-09 18:05:00 82.7 28.1 46.4 82.7 82.7 6.9 7.1 5.2 128.5 136.0 0.00 0.0736711 80.6
2020-08-09 18:10:00 83.4 25.3 44.2 83.4 83.4 6.5 8.5 6.4 152.4 151.2 0.00 0.0657283 80.5
2020-08-09 18:15:00 82.9 26.4 44.9 82.9 82.9 7.6 12.6 7.6 129.2 139.6 0.00 0.0506743 80.5
2020-08-09 18:20:00 82.8 25.2 43.6 82.8 82.8 6.9 9.6 7.1 147.2 142.9 0.00 0.0447002 80.4
2020-08-09 18:25:00 82.9 27.2 45.6 82.9 82.9 5.6 9.0 6.3 135.0 136.2 0.00 0.0438345 80.4
2020-08-09 18:30:00 83.1 26.5 45.2 83.1 83.1 5.6 6.9 4.8 120.9 134.8 0.00 0.0400832 80.3
2020-08-09 18:35:00 82.6 26.4 44.7 82.6 82.6 9.6 10.8 8.6 150.9 142.1 0.00 0.0365012 80.3
2020-08-09 18:40:00 82.4 27.9 45.9 82.4 82.4 5.8 8.1 6.6 147.2 142.8 0.00 0.0337075 80.3
2020-08-09 18:45:00 82.4 27.1 45.2 82.4 82.4 6.3 10.6 7.6 151.0 151.0 0.00 0.0306158 80.2
2020-08-09 18:50:00 82.1 29.5 47.2 82.1 82.1 4.9 9.6 7.6 165.9 148.9 0.00 0.0279475 80.2
2020-08-09 18:55:00 81.8 29.3 46.7 81.8 81.8 6.7 10.5 7.6 124.3 151.4 0.00 0.0250538 80.1
2020-08-09 19:00:00 81.1 29.5 46.3 81.1 81.1 6.3 9.6 7.7 121.6 135.9 0.00 0.0151032 80.1
2020-08-09 19:05:00 79.9 31.6 47.1 79.9 79.9 4.7 7.1 5.5 133.8 137.0 0.00 0.0014166 80.0
2020-08-09 19:10:00 79.2 30.9 45.9 79.2 79.2 4.4 7.2 4.8 167.6 141.3 0.00 0.0015192 80.0
2020-08-09 19:15:00 78.7 33.9 47.9 78.7 78.7 3.1 4.7 3.2 79.2 133.9 0.00 0.0137608 79.9
2020-08-09 19:20:00 78.9 33.6 47.8 78.9 78.9 2.8 4.4 3.3 141.9 119.5 0.00 0.0141608 79.8
2020-08-09 19:25:00 78.9 32.9 47.3 78.9 78.9 3.1 4.0 3.4 121.4 114.2 0.00 0.0114455 79.8
2020-08-09 19:30:00 78.7 33.4 47.5 78.7 78.7 3.3 4.9 3.6 136.9 121.3 0.00 0.0090485 79.7
2020-08-09 19:35:00 78.2 34.8 48.1 78.2 78.2 2.6 3.5 2.8 161.5 152.5 0.00 0.0072635 79.6
2020-08-09 19:40:00 77.7 34.9 47.8 77.7 77.7 3.1 3.1 2.7 164.3 158.9 0.00 0.0049566 79.5
2020-08-09 19:45:00 77.2 34.8 47.3 77.2 77.2 4.0 4.7 3.9 160.6 167.5 0.00 0.0028575 79.4
2020-08-09 19:50:00 76.9 35.0 47.1 76.9 76.9 3.1 4.6 3.7 173.3 161.7 0.00 0.0003129 79.4
2020-08-09 19:55:00 76.3 40.9 50.8 76.3 76.3 4.4 4.7 4.1 197.7 177.7 0.00 0.0001028 79.3
2020-08-09 20:00:00 74.0 48.0 53.1 74.0 74.0 4.4 5.3 4.7 200.4 198.3 0.00 0.0000000 79.2
2020-08-09 20:05:00 72.8 48.7 52.4 72.8 72.8 6.3 8.3 6.4 209.2 206.4 0.00 0.0000000 79.1
2020-08-09 20:10:00 73.1 46.8 51.6 73.1 73.1 7.4 9.0 6.2 205.4 203.6 0.00 0.0000000 79.0
2020-08-09 20:15:00 75.3 38.0 47.9 75.3 75.3 6.0 11.3 8.3 190.5 199.6 0.00 0.0000000 78.9
2020-08-09 20:20:00 76.0 36.2 47.3 76.0 76.0 6.7 11.2 7.2 153.5 179.2 0.00 0.0000000 78.9
2020-08-09 20:25:00 76.0 35.3 46.6 76.0 76.0 7.6 10.8 7.7 195.2 174.2 0.00 0.0000000 78.8
2020-08-09 20:30:00 76.2 34.1 45.8 76.2 76.2 10.1 14.6 11.0 184.7 182.6 0.00 0.0000000 78.7
2020-08-09 20:35:00 75.6 35.8 46.7 75.6 75.6 9.6 14.7 10.1 180.4 184.2 0.00 0.0000000 78.6
2020-08-09 20:40:00 74.8 38.0 47.5 74.8 74.8 8.3 13.1 10.0 184.6 194.2 0.00 0.0000000 78.5
2020-08-09 20:45:00 73.7 40.7 48.4 73.7 73.7 8.3 11.2 8.7 215.6 188.7 0.00 0.0000000 78.5
2020-08-09 20:50:00 72.9 41.9 48.4 72.9 72.9 10.8 13.3 10.4 186.3 194.3 0.00 0.0000000 78.4
2020-08-09 20:55:00 72.2 44.4 49.3 72.2 72.2 8.1 12.4 8.9 195.5 192.0 0.00 0.0000000 78.3
2020-08-09 21:00:00 71.7 44.0 48.6 71.7 71.7 9.7 11.3 8.8 183.1 185.5 0.00 0.0000000 78.2
2020-08-09 21:05:00 71.7 45.1 49.3 71.7 71.7 7.1 10.6 8.2 185.9 179.9 0.00 0.0000000 78.1
2020-08-09 21:10:00 70.8 47.1 49.7 70.8 70.8 4.6 8.3 5.4 168.3 186.6 0.00 0.0000000 78.0
2020-08-09 21:15:00 70.8 46.8 49.5 70.8 70.8 5.8 8.0 5.7 183.9 183.7 0.00 0.0000000 77.9
2020-08-09 21:20:00 71.6 44.5 48.8 71.6 71.6 9.0 12.8 8.5 189.0 188.9 0.00 0.0000000 77.9
2020-08-09 21:25:00 71.3 44.0 48.3 71.3 71.3 8.5 9.7 8.0 171.5 191.6 0.00 0.0000000 77.8
2020-08-09 21:30:00 71.1 45.7 49.1 71.1 71.1 4.0 8.7 6.6 184.7 180.1 0.00 0.0000000 77.7
2020-08-09 21:35:00 70.8 45.3 48.6 70.8 70.8 5.6 7.1 5.8 169.0 178.3 0.00 0.0000000 77.6
2020-08-09 21:40:00 70.7 45.3 48.5 70.7 70.7 8.0 8.1 6.3 175.8 183.8 0.00 0.0000000 77.5
2020-08-09 21:45:00 70.8 44.4 48.0 70.8 70.8 7.2 9.4 6.8 191.4 179.8 0.00 0.0000000 77.4
2020-08-09 21:50:00 70.7 44.2 47.9 70.7 70.7 7.4 9.2 6.7 141.2 173.8 0.00 0.0000000 77.3
2020-08-09 21:55:00 70.7 44.1 47.8 70.7 70.7 4.2 8.3 6.7 157.7 164.1 0.00 0.0000000 77.2
2020-08-09 22:00:00 70.6 45.3 48.4 70.6 70.6 4.4 8.5 6.4 170.6 176.0 0.00 0.0000000 77.1
2020-08-09 22:05:00 70.6 44.5 47.9 70.6 70.6 5.6 10.5 7.6 186.6 182.5 0.00 0.0000000 77.0
2020-08-09 22:10:00 70.3 44.1 47.4 70.3 70.3 8.3 9.9 6.7 189.1 187.5 0.00 0.0000000 76.9
2020-08-09 22:15:00 70.5 43.9 47.5 70.5 70.5 9.2 10.5 7.0 176.9 174.6 0.00 0.0000000 76.9
2020-08-09 22:20:00 70.4 43.5 47.1 70.4 70.4 6.9 8.8 7.3 164.9 182.2 0.00 0.0000000 76.8
2020-08-09 22:25:00 70.3 43.3 46.9 70.3 70.3 6.0 8.1 6.4 151.5 176.8 0.00 0.0000000 76.7
2020-08-09 22:30:00 70.3 43.8 47.2 70.3 70.3 7.6 9.4 7.3 157.3 170.1 0.00 0.0000000 76.6
2020-08-09 22:35:00 70.4 43.6 47.2 70.4 70.4 8.1 11.3 7.7 176.1 175.9 0.00 0.0000000 76.5
2020-08-09 22:40:00 71.0 42.6 47.1 71.0 71.0 6.3 11.9 9.0 174.6 186.2 0.00 0.0000000 76.5
2020-08-09 22:45:00 71.2 41.5 46.6 71.2 71.2 9.7 12.6 9.2 201.8 187.5 0.00 0.0000000 76.4
2020-08-09 22:50:00 71.1 42.4 47.1 71.1 71.1 6.0 12.2 8.6 192.5 192.3 0.00 0.0000000 76.3
2020-08-09 22:55:00 71.2 41.7 46.7 71.2 71.2 6.5 9.6 7.6 192.6 197.3 0.00 0.0000000 76.2
2020-08-09 23:00:00 71.5 41.5 46.9 71.5 71.5 6.2 11.5 7.5 207.9 209.6 0.00 0.0000000 76.2
2020-08-09 23:05:00 71.4 42.1 47.2 71.4 71.4 4.6 8.8 6.7 244.3 220.5 0.00 0.0000000 76.0
2020-08-09 23:10:00 70.6 43.2 47.1 70.6 70.6 3.5 6.9 4.6 259.0 249.9 0.00 0.0000000 76.0
2020-08-09 23:15:00 69.4 45.1 47.2 69.4 69.4 4.6 4.9 4.0 264.0 253.6 0.00 0.0000000 75.9
2020-08-09 23:20:00 68.5 47.3 47.7 68.5 68.5 3.1 4.6 3.7 259.8 257.8 0.00 0.0000000 75.8
2020-08-09 23:25:00 68.7 44.7 46.4 68.7 68.7 6.3 7.4 5.1 253.5 262.5 0.00 0.0000000 75.8
2020-08-09 23:30:00 68.6 46.0 47.0 68.6 68.6 5.5 6.0 4.8 248.4 256.0 0.00 0.0000000 75.7
2020-08-09 23:35:00 68.6 44.5 46.1 68.6 68.6 6.5 6.9 5.4 279.3 266.6 0.00 0.0000000 75.6
2020-08-09 23:40:00 69.5 45.1 47.3 69.5 69.5 3.1 7.2 5.8 133.6 262.0 0.00 0.0000000 75.5
2020-08-09 23:45:00 68.5 46.5 47.2 68.5 68.5 3.1 4.2 3.2 165.8 189.2 0.00 0.0000000 75.5
2020-08-09 23:50:00 68.8 43.7 45.8 68.8 68.8 3.3 5.3 3.9 278.2 216.2 0.00 0.0000000 75.4
2020-08-09 23:55:00 69.0 41.2 44.5 69.0 69.0 4.7 8.3 4.6 258.1 248.6 0.00 0.0000000 75.3
2020-08-10 00:00:00 71.4 39.0 45.1 71.4 71.4 6.3 9.7 7.0 247.1 250.7 0.00 0.0000087 75.3
2020-08-10 00:05:00 71.1 38.2 44.3 71.1 71.1 6.3 8.1 5.9 230.4 243.0 0.00 0.0000000 75.2
2020-08-10 00:10:00 71.6 37.5 44.4 71.6 71.6 8.0 8.8 6.7 239.3 234.8 0.00 0.0000000 75.1
2020-08-10 00:15:00 71.8 37.2 44.3 71.8 71.8 6.7 8.8 7.3 227.8 232.7 0.00 0.0000000 75.0
2020-08-10 00:20:00 72.6 36.7 44.6 72.6 72.6 6.2 9.7 8.0 222.3 222.6 0.00 0.0000000 74.9
2020-08-10 00:25:00 72.4 35.9 43.9 72.4 72.4 8.1 11.0 7.9 207.8 218.6 0.00 0.0000000 74.9
2020-08-10 00:30:00 72.2 35.8 43.6 72.2 72.2 7.4 9.2 7.1 213.2 214.5 0.00 0.0000000 74.8
2020-08-10 00:35:00 71.8 37.0 44.2 71.8 71.8 6.9 7.2 6.1 195.2 204.2 0.00 0.0000000 74.7
2020-08-10 00:40:00 71.1 38.8 44.8 71.1 71.1 4.6 6.7 4.9 145.3 171.3 0.00 0.0000000 74.6
2020-08-10 00:45:00 69.6 41.3 45.0 69.6 69.6 4.2 4.4 3.0 145.0 147.2 0.00 0.0000000 74.5
2020-08-10 00:50:00 68.3 44.5 45.8 68.3 68.3 3.3 4.4 3.4 109.5 113.4 0.00 0.0000000 74.4
2020-08-10 00:55:00 66.8 46.6 45.7 66.8 66.8 1.2 3.8 2.3 69.7 35.7 0.00 0.0000000 74.3
2020-08-10 01:00:00 66.4 47.0 45.6 66.4 66.4 0.8 2.2 1.3 331.2 48.9 0.00 0.0000000 74.2
2020-08-10 01:05:00 66.2 46.8 45.2 66.2 66.2 1.7 3.0 1.9 65.0 331.8 0.00 0.0000000 74.2
2020-08-10 01:10:00 67.2 43.7 44.4 67.2 67.2 3.0 3.0 1.7 343.4 337.6 0.00 0.0000000 74.0
2020-08-10 01:15:00 69.1 41.4 44.7 69.1 69.1 3.8 4.6 3.2 40.7 22.7 0.00 0.0000000 73.9
2020-08-10 01:20:00 66.2 48.9 46.4 66.2 66.2 5.6 6.3 5.4 39.0 44.0 0.00 0.0000000 73.8
2020-08-10 01:25:00 66.3 47.5 45.7 66.3 66.3 5.5 6.9 5.4 78.7 72.4 0.00 0.0000000 73.7
2020-08-10 01:30:00 66.4 48.0 46.1 66.4 66.4 8.0 8.3 6.0 100.2 96.8 0.00 0.0000000 73.6
2020-08-10 01:35:00 66.3 48.9 46.5 66.3 66.3 6.2 8.8 6.9 113.3 98.6 0.00 0.0000000 73.6
2020-08-10 01:40:00 66.4 48.7 46.5 66.4 66.4 5.3 7.2 5.6 114.0 104.7 0.00 0.0000000 73.5
2020-08-10 01:45:00 66.5 49.4 46.9 66.5 66.5 6.2 7.8 6.0 124.1 106.6 0.00 0.0000000 73.4
2020-08-10 01:50:00 66.4 49.8 47.0 66.4 66.4 5.3 8.8 6.0 136.9 115.8 0.00 0.0000000 73.3
2020-08-10 01:55:00 66.2 50.8 47.4 66.2 66.2 6.2 9.0 6.6 121.8 131.1 0.00 0.0000000 73.3
2020-08-10 02:00:00 66.0 51.6 47.7 66.0 66.0 6.7 9.6 6.9 116.8 127.0 0.00 0.0000000 73.2
2020-08-10 02:05:00 65.8 52.2 47.8 65.8 65.8 7.1 9.0 6.8 142.9 131.6 0.00 0.0000000 73.2
2020-08-10 02:10:00 65.8 51.2 47.3 65.8 65.8 6.3 8.3 6.7 139.2 135.3 0.00 0.0000000 73.1
2020-08-10 02:15:00 66.4 49.6 47.0 66.4 66.4 5.1 8.1 6.5 167.2 145.1 0.00 0.0000000 73.1
2020-08-10 02:20:00 66.8 48.7 46.8 66.8 66.8 5.6 8.3 6.3 143.4 146.0 0.00 0.0000000 73.0
2020-08-10 02:25:00 67.4 46.7 46.3 67.4 67.4 6.7 8.0 6.0 161.9 154.1 0.00 0.0000000 72.9
2020-08-10 02:30:00 67.8 46.2 46.4 67.8 67.8 6.2 9.6 6.6 120.4 152.4 0.00 0.0000000 72.9
2020-08-10 02:35:00 67.9 46.0 46.4 67.9 67.9 6.7 8.7 6.3 187.6 162.1 0.00 0.0000000 72.8
2020-08-10 02:40:00 68.0 45.4 46.1 68.0 68.0 6.9 9.0 7.0 170.1 163.4 0.00 0.0000000 72.7
2020-08-10 02:45:00 67.8 47.1 46.8 67.8 67.8 4.2 7.8 5.7 166.8 160.0 0.00 0.0000000 72.7
2020-08-10 02:50:00 67.0 47.6 46.5 67.0 67.0 5.1 6.0 4.5 169.4 158.0 0.00 0.0000000 72.6
2020-08-10 02:55:00 66.4 50.5 47.4 66.4 66.4 4.2 5.1 4.4 167.0 180.1 0.00 0.0000000 72.5
2020-08-10 03:00:00 65.9 49.9 46.7 65.9 65.9 3.7 4.9 4.0 186.4 173.6 0.00 0.0000000 72.5
2020-08-10 03:05:00 65.6 50.5 46.7 65.6 65.6 4.0 4.4 3.9 174.8 187.1 0.00 0.0000000 72.4
2020-08-10 03:10:00 65.7 49.9 46.5 65.7 65.7 4.4 5.3 4.6 164.2 169.3 0.00 0.0000000 72.4
2020-08-10 03:15:00 65.9 48.9 46.2 65.9 65.9 6.2 6.7 5.0 192.9 177.1 0.00 0.0000000 72.3
2020-08-10 03:20:00 66.0 50.6 47.2 66.0 66.0 5.1 6.5 5.3 197.4 187.5 0.00 0.0000000 72.3
2020-08-10 03:25:00 65.4 50.9 46.8 65.4 65.4 4.7 5.6 5.1 176.2 190.5 0.00 0.0000000 72.3
2020-08-10 03:30:00 66.2 46.9 45.3 66.2 66.2 6.7 6.7 5.1 180.3 176.3 0.00 0.0000000 72.2
2020-08-10 03:35:00 67.3 45.2 45.3 67.3 67.3 5.6 7.6 5.5 168.8 182.5 0.00 0.0000000 72.2
2020-08-10 03:40:00 66.9 47.3 46.2 66.9 66.9 4.2 6.0 3.7 196.8 201.4 0.00 0.0000000 72.2
2020-08-10 03:45:00 66.2 49.0 46.5 66.2 66.2 2.4 3.7 1.7 182.3 256.3 0.00 0.0000000 72.1
2020-08-10 03:50:00 66.5 46.5 45.4 66.5 66.5 1.5 3.8 2.5 179.6 197.4 0.00 0.0000000 72.1
2020-08-10 03:55:00 66.5 46.4 45.4 66.5 66.5 2.8 3.1 1.4 247.8 224.4 0.00 0.0000000 72.0
2020-08-10 04:00:00 65.3 50.7 46.6 65.3 65.3 3.7 4.4 3.6 316.6 319.8 0.00 0.0000000 72.0
2020-08-10 04:05:00 64.5 52.0 46.5 64.5 64.5 3.8 4.4 3.3 333.3 329.0 0.00 0.0000000 71.9
2020-08-10 04:10:00 64.2 49.2 44.8 64.2 64.2 3.0 4.4 3.5 336.3 326.9 0.00 0.0000000 71.9
2020-08-10 04:15:00 65.0 47.3 44.4 65.0 65.0 2.1 4.2 2.7 317.8 296.1 0.00 0.0000000 71.9
2020-08-10 04:20:00 65.1 49.9 45.9 65.1 65.1 3.1 3.7 2.2 274.2 239.8 0.00 0.0000000 71.8
2020-08-10 04:25:00 65.7 46.7 44.7 65.7 65.7 3.8 6.0 3.6 224.9 243.8 0.00 0.0000000 71.8
2020-08-10 04:30:00 67.7 41.1 43.2 67.7 67.7 6.3 9.6 5.5 216.9 222.4 0.00 0.0000097 71.7
2020-08-10 04:35:00 68.2 41.3 43.8 68.2 68.2 7.4 8.0 6.2 248.4 230.4 0.00 0.0000000 71.7
2020-08-10 04:40:00 68.7 41.3 44.3 68.7 68.7 6.9 9.6 7.1 227.0 224.0 0.00 0.0000000 71.7
2020-08-10 04:45:00 69.6 40.6 44.6 69.6 69.6 6.2 11.0 8.0 249.3 230.8 0.00 0.0000000 71.6
2020-08-10 04:50:00 68.6 43.3 45.5 68.6 68.6 5.3 9.7 6.5 264.6 253.4 0.00 0.0000000 71.6
2020-08-10 04:55:00 65.8 48.3 45.7 65.8 65.8 6.3 6.7 5.5 283.4 281.5 0.00 0.0000000 71.5
2020-08-10 05:00:00 64.2 51.7 46.1 64.2 64.2 5.3 6.0 5.4 290.6 289.6 0.00 0.0000000 71.6
2020-08-10 05:05:00 63.6 52.3 45.8 63.6 63.6 6.2 6.7 5.7 281.8 282.6 0.00 0.0000000 71.6
2020-08-10 05:10:00 64.7 49.2 45.2 64.7 64.7 6.5 7.4 6.0 259.1 276.1 0.00 0.0000000 71.7
2020-08-10 05:15:00 66.1 47.5 45.5 66.1 66.1 5.3 7.4 6.1 253.6 258.6 0.00 0.0000000 71.6
2020-08-10 05:20:00 66.7 45.8 45.2 66.7 66.7 7.4 8.5 6.3 237.9 248.4 0.00 0.0000000 71.6
2020-08-10 05:25:00 67.9 44.8 45.7 67.9 67.9 6.7 9.4 7.4 235.4 236.0 0.00 0.0000000 71.6
2020-08-10 05:30:00 68.3 44.1 45.6 68.3 68.3 6.3 8.5 6.6 229.2 233.3 0.00 0.0000000 71.5
2020-08-10 05:35:00 68.2 44.1 45.5 68.2 68.2 8.5 9.4 7.1 231.4 234.8 0.00 0.0000000 71.5
2020-08-10 05:40:00 69.1 42.8 45.6 69.1 69.1 7.8 9.9 8.4 246.5 244.9 0.00 0.0000000 71.4
2020-08-10 05:45:00 68.8 42.8 45.2 68.8 68.8 8.0 9.6 7.9 240.8 247.9 0.00 0.0000000 71.4
2020-08-10 05:50:00 68.6 43.2 45.4 68.6 68.6 8.0 10.5 8.3 219.6 246.0 0.00 0.0000000 71.3
2020-08-10 05:55:00 68.4 43.7 45.4 68.4 68.4 6.7 9.9 8.1 250.6 249.7 0.00 0.0000000 71.3
2020-08-10 06:00:00 68.6 42.2 44.7 68.6 68.6 12.6 12.6 8.7 257.2 246.9 0.00 0.0000000 71.3
2020-08-10 06:05:00 69.5 41.7 45.2 69.5 69.5 9.6 12.4 9.6 249.2 243.8 0.00 0.0000000 71.2
2020-08-10 06:10:00 69.4 41.5 44.9 69.4 69.4 8.8 11.3 8.8 240.6 245.1 0.00 0.0000000 71.2
2020-08-10 06:15:00 69.4 41.9 45.3 69.4 69.4 7.6 11.5 8.5 246.7 246.5 0.00 0.0000000 71.2
2020-08-10 06:20:00 69.4 42.6 45.6 69.4 69.4 6.9 11.0 8.5 271.2 250.2 0.00 0.0000000 71.2
2020-08-10 06:25:00 68.3 44.4 45.8 68.3 68.3 5.6 9.4 6.6 263.0 261.9 0.00 0.0000208 71.2
2020-08-10 06:30:00 66.9 46.7 45.8 66.9 66.9 5.6 7.2 5.8 275.9 278.3 0.00 0.0010945 71.1
2020-08-10 06:35:00 66.2 48.2 46.0 66.2 66.2 6.3 6.9 6.0 273.9 282.1 0.00 0.0033620 71.1
2020-08-10 06:40:00 65.7 49.4 46.3 65.7 65.7 6.2 8.1 6.7 293.4 279.6 0.00 0.0016704 71.1
2020-08-10 06:45:00 65.6 49.6 46.3 65.6 65.6 6.2 8.0 6.8 280.4 274.2 0.00 0.0026692 71.0
2020-08-10 06:50:00 66.0 47.7 45.6 66.0 66.0 6.7 8.3 6.5 254.6 269.3 0.00 0.0032472 71.1
2020-08-10 06:55:00 68.4 43.2 45.2 68.4 68.4 8.0 8.5 7.2 256.1 260.8 0.00 0.0110589 71.0
2020-08-10 07:00:00 68.9 42.3 45.0 68.9 68.9 8.8 10.5 7.7 263.3 258.3 0.00 0.0039029 71.0
2020-08-10 07:05:00 69.1 42.3 45.2 69.1 69.1 7.1 9.7 7.6 256.6 261.1 0.00 0.0084871 71.0
2020-08-10 07:10:00 69.3 42.3 45.4 69.3 69.3 7.2 9.9 7.5 264.0 259.7 0.00 0.0090388 70.9
2020-08-10 07:15:00 68.9 42.5 45.2 68.9 68.9 7.6 9.9 7.4 270.2 256.9 0.00 0.0032649 70.9
2020-08-10 07:20:00 68.8 42.1 44.8 68.8 68.8 8.3 8.3 7.3 251.6 252.1 0.00 0.0065192 70.9
2020-08-10 07:25:00 68.7 41.8 44.6 68.7 68.7 8.3 9.6 7.4 247.7 256.4 0.00 0.0054629 70.8
2020-08-10 07:30:00 69.2 41.5 44.8 69.2 69.2 7.6 9.6 8.2 249.9 252.8 0.00 0.0100291 70.8
2020-08-10 07:35:00 70.4 39.2 44.4 70.4 70.4 9.2 10.3 7.7 252.4 255.9 0.00 0.0352443 70.8
2020-08-10 07:40:00 72.3 37.6 45.0 72.3 72.3 7.8 10.5 8.8 244.3 251.7 0.00 0.0403642 70.8
2020-08-10 07:45:00 73.4 36.2 45.0 73.4 73.4 8.5 10.1 8.1 244.2 253.4 0.00 0.0437111 70.7
2020-08-10 07:50:00 74.2 34.2 44.2 74.2 74.2 11.5 11.5 9.3 229.4 244.9 0.00 0.0475987 70.7
2020-08-10 07:55:00 74.9 33.6 44.3 74.9 74.9 10.5 13.0 9.4 228.9 243.1 0.00 0.0459925 70.7
2020-08-10 08:00:00 75.3 33.8 44.8 75.3 75.3 8.7 11.9 9.4 265.3 239.6 0.00 0.0523300 70.7
2020-08-10 08:05:00 76.1 34.2 45.8 76.1 76.1 7.6 11.3 9.4 254.8 241.8 0.00 0.0560378 70.7
2020-08-10 08:10:00 76.6 31.8 44.3 76.6 76.6 11.7 11.7 8.9 248.5 242.4 0.00 0.0583509 70.6
2020-08-10 08:15:00 76.9 31.9 44.8 76.9 76.9 10.5 11.9 9.0 235.6 239.8 0.00 0.0618398 70.6
2020-08-10 08:20:00 77.4 32.4 45.6 77.4 77.4 8.5 10.6 9.4 245.5 243.5 0.00 0.0658660 70.7
2020-08-10 08:25:00 77.9 31.2 45.0 77.9 77.9 8.8 11.0 8.9 238.0 241.1 0.00 0.0691106 70.7
2020-08-10 08:30:00 78.4 31.6 45.7 78.4 78.4 7.4 10.8 8.9 253.6 241.3 0.00 0.0723054 70.7
2020-08-10 08:35:00 78.7 29.5 44.3 78.7 78.7 9.9 11.7 8.7 231.0 241.2 0.00 0.0760155 70.7
2020-08-10 08:40:00 79.2 29.3 44.5 79.2 79.2 8.8 9.9 8.3 248.0 252.5 0.00 0.0795500 70.7
2020-08-10 08:45:00 79.7 29.4 45.0 79.7 79.7 7.4 11.3 8.6 258.0 247.9 0.00 0.0826450 70.8
2020-08-10 08:50:00 80.2 28.5 44.5 80.2 80.2 9.7 12.2 9.7 247.5 251.8 0.00 0.0862580 70.8
2020-08-10 08:55:00 80.5 27.2 43.6 80.5 80.5 9.6 10.6 8.9 263.9 251.6 0.00 0.0897408 70.9
2020-08-10 09:00:00 80.9 28.0 44.7 80.9 80.9 10.3 12.2 9.4 273.7 251.9 0.00 0.0931503 71.0
2020-08-10 09:05:00 82.0 24.4 42.0 82.0 82.0 9.6 9.6 7.3 274.7 270.2 0.00 0.0964010 71.1
2020-08-10 09:10:00 82.1 23.6 41.3 82.1 82.1 6.5 13.9 9.1 292.8 270.7 0.00 0.0995343 71.2
2020-08-10 09:15:00 82.4 19.9 37.2 82.4 82.4 12.8 15.5 10.4 301.6 286.3 0.00 0.1026829 71.3
2020-08-10 09:20:00 82.5 21.8 39.6 82.5 82.5 8.5 14.6 10.7 268.2 283.6 0.00 0.1060240 71.4
2020-08-10 09:25:00 82.9 21.0 39.0 82.9 82.9 12.1 14.0 10.8 294.7 278.1 0.00 0.1095967 71.5
2020-08-10 09:30:00 82.9 20.6 38.5 82.9 82.9 11.9 14.6 10.4 292.8 284.9 0.00 0.1128548 71.7
2020-08-10 09:35:00 82.9 19.9 37.6 82.9 82.9 12.2 15.5 11.7 307.7 283.1 0.00 0.1156986 71.8
2020-08-10 09:40:00 83.4 19.9 37.9 83.4 83.4 10.1 11.5 10.0 284.2 282.0 0.00 0.1192140 71.9
2020-08-10 09:45:00 83.8 20.8 39.5 83.8 83.8 10.8 14.0 10.1 268.1 278.0 0.00 0.1226703 72.1
2020-08-10 09:50:00 83.6 19.5 37.6 83.6 83.6 11.5 13.1 11.1 264.7 278.5 0.00 0.1256519 72.2
2020-08-10 09:55:00 84.0 20.4 39.1 84.0 84.0 9.7 13.1 10.0 278.4 278.2 0.00 0.1286805 72.3
2020-08-10 10:00:00 83.8 19.7 38.0 83.8 83.8 12.1 13.0 10.0 257.6 291.7 0.00 0.1318148 72.5
2020-08-10 10:05:00 84.7 17.8 36.3 84.7 84.7 12.1 12.1 9.3 290.1 288.2 0.00 0.1348802 72.6
2020-08-10 10:10:00 84.4 20.9 40.1 84.4 84.4 8.7 13.0 9.9 265.0 277.4 0.00 0.1372843 72.7
2020-08-10 10:15:00 84.9 18.9 37.9 84.9 84.9 11.3 11.7 8.4 289.1 293.7 0.00 0.1407189 72.9
2020-08-10 10:20:00 85.0 18.2 37.1 85.0 85.0 10.5 13.3 9.6 270.3 273.3 0.00 0.1438236 73.0
2020-08-10 10:25:00 84.9 19.0 38.0 84.9 84.9 6.9 13.0 9.2 274.8 276.1 0.00 0.1471611 73.1
2020-08-10 10:30:00 85.6 21.4 41.7 85.6 85.6 8.0 11.0 7.7 260.3 267.7 0.00 0.1500590 73.3
2020-08-10 10:35:00 86.3 18.3 38.2 86.3 86.3 9.6 11.3 8.3 272.5 275.4 0.00 0.1528258 73.4
2020-08-10 10:40:00 86.0 18.8 38.6 86.0 86.0 7.8 14.0 10.1 262.2 263.7 0.00 0.1551777 73.6
2020-08-10 10:45:00 86.3 17.7 37.5 86.3 86.3 11.2 11.9 9.0 271.8 270.7 0.00 0.1543958 73.8
2020-08-10 10:50:00 86.1 17.6 37.1 86.1 86.1 10.5 13.1 8.6 301.7 278.6 0.00 0.1380991 74.0
2020-08-10 10:55:00 85.9 18.4 38.0 85.9 85.9 5.6 13.7 9.1 323.6 302.8 0.00 0.1535928 74.2
2020-08-10 11:00:00 86.4 16.6 35.8 86.4 86.4 8.1 12.6 9.3 303.8 281.3 0.00 0.1558906 74.4
2020-08-10 11:05:00 86.7 16.2 35.4 86.7 86.7 9.2 11.7 9.0 284.2 283.1 0.00 0.1603379 74.6
2020-08-10 11:10:00 86.9 17.3 37.3 86.9 86.9 7.8 11.9 8.8 290.5 278.3 0.00 0.1617413 74.8
2020-08-10 11:15:00 86.7 16.5 36.0 86.7 86.7 7.6 14.2 9.9 321.4 300.9 0.00 0.1635478 75.1
2020-08-10 11:20:00 87.7 16.3 36.4 87.7 87.7 11.0 11.0 7.9 270.2 296.2 0.00 0.1658136 75.3
2020-08-10 11:25:00 87.6 16.2 36.2 87.6 87.6 12.8 16.0 11.3 266.0 273.3 0.00 0.1668479 75.5
2020-08-10 11:30:00 87.3 17.6 38.1 87.3 87.3 5.6 14.0 8.5 322.4 286.8 0.00 0.1690295 75.7
2020-08-10 11:35:00 87.6 15.4 34.8 87.6 87.6 9.2 12.1 9.3 294.0 303.6 0.00 0.1703458 75.9
2020-08-10 11:40:00 88.2 15.8 36.1 88.2 88.2 9.9 14.7 8.8 277.8 285.9 0.00 0.1718278 76.1
2020-08-10 11:45:00 87.7 16.6 36.9 87.7 87.7 4.4 12.6 9.1 307.3 294.5 0.00 0.1730365 76.3
2020-08-10 11:50:00 88.0 15.8 35.9 88.0 88.0 9.9 14.2 8.6 268.7 288.8 0.00 0.1742130 76.6
2020-08-10 11:55:00 88.3 14.9 34.7 88.3 88.3 9.7 12.6 7.4 334.1 299.7 0.00 0.1754619 76.8
2020-08-10 12:00:00 88.7 14.8 34.8 88.7 88.7 9.2 13.9 10.2 305.8 300.6 0.00 0.1765557 77.0
2020-08-10 12:05:00 88.7 14.1 33.5 88.7 88.7 12.2 12.2 8.6 243.8 285.8 0.00 0.1777532 77.2
2020-08-10 12:10:00 89.2 14.0 33.9 89.2 89.2 9.4 14.2 9.4 317.6 301.4 0.00 0.1801887 77.5
2020-08-10 12:15:00 88.5 14.5 34.2 88.5 88.5 6.3 12.4 8.7 267.1 292.4 0.00 0.1806457 77.7
2020-08-10 12:20:00 88.5 14.3 33.8 88.5 88.5 7.2 18.9 9.1 316.2 303.4 0.00 0.1823305 78.0
2020-08-10 12:25:00 88.5 14.3 33.8 88.5 88.5 5.5 14.4 9.4 312.8 329.0 0.00 0.1843915 78.2
2020-08-10 12:30:00 88.9 15.2 35.6 88.9 88.9 9.4 16.0 9.3 297.0 334.2 0.00 0.1866623 78.4
2020-08-10 12:35:00 89.6 17.3 39.5 89.6 89.6 4.6 11.2 7.1 277.4 308.4 0.00 0.1888944 78.7
2020-08-10 12:40:00 89.5 13.0 32.1 89.5 89.5 12.6 13.7 9.8 285.7 312.8 0.00 0.1901266 78.9
2020-08-10 12:45:00 89.4 12.6 31.3 89.4 89.4 7.8 14.2 9.2 307.6 294.5 0.00 0.1959809 79.2
2020-08-10 12:50:00 89.5 13.4 33.0 89.5 89.5 8.8 11.0 6.7 309.3 278.8 0.00 0.2046598 79.4

Data is courtesy of the NM Climate Center. DO NOT USE IN LEGAL PROCEEDINGS.